sensor_id;sensor_type;location;lat;lon;timestamp;pressure;altitude;pressure_sealevel;temperature;humidity
50349;BME280;36250;48.740;22.174;2022-09-12T00:01:15;99902.00;;;12.59;100.00
50349;BME280;36250;48.740;22.174;2022-09-12T00:03:41;99895.81;;;12.65;100.00
50349;BME280;36250;48.740;22.174;2022-09-12T00:08:42;99890.69;;;12.70;100.00
50349;BME280;36250;48.740;22.174;2022-09-12T00:11:09;99888.47;;;12.67;100.00
50349;BME280;36250;48.740;22.174;2022-09-12T00:13:36;99892.56;;;12.63;100.00
50349;BME280;36250;48.740;22.174;2022-09-12T00:16:02;99891.97;;;12.61;100.00
50349;BME280;36250;48.740;22.174;2022-09-12T00:18:27;99894.00;;;12.66;100.00
50349;BME280;36250;48.740;22.174;2022-09-12T00:20:52;99892.75;;;12.68;100.00
50349;BME280;36250;48.740;22.174;2022-09-12T00:23:18;99884.16;;;12.66;100.00
50349;BME280;36250;48.740;22.174;2022-09-12T00:25:45;99887.00;;;12.71;100.00
50349;BME280;36250;48.740;22.174;2022-09-12T00:28:12;99885.19;;;12.72;100.00
50349;BME280;36250;48.740;22.174;2022-09-12T00:30:46;99882.09;;;12.75;100.00
50349;BME280;36250;48.740;22.174;2022-09-12T00:33:12;99878.41;;;12.76;100.00
50349;BME280;36250;48.740;22.174;2022-09-12T00:35:46;99877.56;;;12.75;100.00
50349;BME280;36250;48.740;22.174;2022-09-12T00:38:12;99880.47;;;12.74;100.00
50349;BME280;36250;48.740;22.174;2022-09-12T00:40:38;99879.63;;;12.73;100.00
50349;BME280;36250;48.740;22.174;2022-09-12T00:43:04;99879.03;;;12.71;100.00
50349;BME280;36250;48.740;22.174;2022-09-12T00:45:30;99880.50;;;12.67;100.00
50349;BME280;36250;48.740;22.174;2022-09-12T00:47:59;99882.34;;;12.67;100.00
50349;BME280;36250;48.740;22.174;2022-09-12T00:50:26;99881.75;;;12.65;100.00
50349;BME280;36250;48.740;22.174;2022-09-12T00:52:57;99871.50;;;12.61;100.00
50349;BME280;36250;48.740;22.174;2022-09-12T00:55:27;99874.59;;;12.58;100.00
50349;BME280;36250;48.740;22.174;2022-09-12T00:58:00;99877.69;;;12.55;100.00
50349;BME280;36250;48.740;22.174;2022-09-12T01:00:28;99881.16;;;12.56;100.00
50349;BME280;36250;48.740;22.174;2022-09-12T01:03:15;99871.56;;;12.55;100.00
50349;BME280;36250;48.740;22.174;2022-09-12T01:05:45;99881.38;;;12.54;100.00
50349;BME280;36250;48.740;22.174;2022-09-12T01:08:12;99877.06;;;12.53;100.00
50349;BME280;36250;48.740;22.174;2022-09-12T01:10:39;99876.81;;;12.61;100.00
50349;BME280;36250;48.740;22.174;2022-09-12T01:13:08;99876.03;;;12.61;100.00
50349;BME280;36250;48.740;22.174;2022-09-12T01:15:36;99878.69;;;12.61;100.00
50349;BME280;36250;48.740;22.174;2022-09-12T01:21:00;99877.44;;;12.64;100.00
50349;BME280;36250;48.740;22.174;2022-09-12T01:24:01;99883.78;;;12.63;100.00
50349;BME280;36250;48.740;22.174;2022-09-12T01:27:12;99892.41;;;12.58;100.00
50349;BME280;36250;48.740;22.174;2022-09-12T01:35:58;99890.41;;;12.46;100.00
50349;BME280;36250;48.740;22.174;2022-09-12T01:38:51;99895.13;;;12.44;100.00
50349;BME280;36250;48.740;22.174;2022-09-12T01:42:10;99890.59;;;12.45;100.00
50349;BME280;36250;48.740;22.174;2022-09-12T01:47:13;99885.88;;;12.54;100.00
50349;BME280;36250;48.740;22.174;2022-09-12T01:49:51;99883.56;;;12.64;100.00
50349;BME280;36250;48.740;22.174;2022-09-12T01:52:26;99880.22;;;12.75;100.00
50349;BME280;36250;48.740;22.174;2022-09-12T01:54:58;99885.53;;;12.75;100.00
50349;BME280;36250;48.740;22.174;2022-09-12T01:57:36;99893.53;;;12.75;100.00
50349;BME280;36250;48.740;22.174;2022-09-12T02:00:06;99890.88;;;12.75;100.00
50349;BME280;36250;48.740;22.174;2022-09-12T02:02:39;99896.41;;;12.74;100.00
50349;BME280;36250;48.740;22.174;2022-09-12T02:05:34;99887.84;;;12.72;100.00
50349;BME280;36250;48.740;22.174;2022-09-12T02:08:08;99888.78;;;12.84;100.00
50349;BME280;36250;48.740;22.174;2022-09-12T02:10:45;99896.34;;;12.81;100.00
50349;BME280;36250;48.740;22.174;2022-09-12T02:13:18;99886.75;;;12.80;100.00
50349;BME280;36250;48.740;22.174;2022-09-12T02:15:53;99891.25;;;12.86;100.00
50349;BME280;36250;48.740;22.174;2022-09-12T02:18:23;99899.59;;;12.83;100.00
50349;BME280;36250;48.740;22.174;2022-09-12T02:20:50;99894.34;;;12.76;100.00
50349;BME280;36250;48.740;22.174;2022-09-12T02:23:21;99890.69;;;12.70;100.00
50349;BME280;36250;48.740;22.174;2022-09-12T02:25:51;99891.94;;;12.68;100.00
50349;BME280;36250;48.740;22.174;2022-09-12T02:28:23;99893.59;;;12.62;100.00
50349;BME280;36250;48.740;22.174;2022-09-12T02:31:06;99886.84;;;12.59;100.00
50349;BME280;36250;48.740;22.174;2022-09-12T02:33:50;99894.22;;;12.57;100.00
50349;BME280;36250;48.740;22.174;2022-09-12T02:38:51;99896.09;;;12.50;100.00
50349;BME280;36250;48.740;22.174;2022-09-12T02:41:19;99895.72;;;12.46;100.00
50349;BME280;36250;48.740;22.174;2022-09-12T02:43:45;99898.38;;;12.46;100.00
50349;BME280;36250;48.740;22.174;2022-09-12T02:46:19;99898.56;;;12.45;100.00
50349;BME280;36250;48.740;22.174;2022-09-12T02:48:46;99906.34;;;12.46;100.00
50349;BME280;36250;48.740;22.174;2022-09-12T02:51:11;99906.53;;;12.52;100.00
50349;BME280;36250;48.740;22.174;2022-09-12T02:53:38;99903.63;;;12.53;100.00
50349;BME280;36250;48.740;22.174;2022-09-12T02:56:06;99905.06;;;12.56;100.00
50349;BME280;36250;48.740;22.174;2022-09-12T02:58:33;99900.97;;;12.60;100.00
50349;BME280;36250;48.740;22.174;2022-09-12T03:09:14;99885.41;;;12.64;100.00
50349;BME280;36250;48.740;22.174;2022-09-12T03:15:01;99898.50;;;12.58;100.00
50349;BME280;36250;48.740;22.174;2022-09-12T03:17:42;99908.16;;;12.53;100.00
50349;BME280;36250;48.740;22.174;2022-09-12T03:20:20;99907.38;;;12.45;100.00
50349;BME280;36250;48.740;22.174;2022-09-12T03:22:57;99905.09;;;12.42;100.00
50349;BME280;36250;48.740;22.174;2022-09-12T03:25:30;99900.22;;;12.39;100.00
50349;BME280;36250;48.740;22.174;2022-09-12T03:27:59;99903.69;;;12.40;100.00
50349;BME280;36250;48.740;22.174;2022-09-12T03:30:44;99902.50;;;12.36;100.00
50349;BME280;36250;48.740;22.174;2022-09-12T03:33:18;99902.50;;;12.29;100.00
50349;BME280;36250;48.740;22.174;2022-09-12T03:35:45;99914.56;;;12.25;100.00
50349;BME280;36250;48.740;22.174;2022-09-12T03:38:11;99906.59;;;12.25;100.00
50349;BME280;36250;48.740;22.174;2022-09-12T03:40:37;99903.53;;;12.21;100.00
50349;BME280;36250;48.740;22.174;2022-09-12T03:43:04;99899.66;;;12.24;100.00
50349;BME280;36250;48.740;22.174;2022-09-12T03:45:30;99912.13;;;12.23;100.00
50349;BME280;36250;48.740;22.174;2022-09-12T03:47:55;99902.94;;;12.26;100.00
50349;BME280;36250;48.740;22.174;2022-09-12T03:50:21;99911.69;;;12.33;100.00
50349;BME280;36250;48.740;22.174;2022-09-12T03:52:46;99910.47;;;12.36;100.00
50349;BME280;36250;48.740;22.174;2022-09-12T03:55:13;99919.47;;;12.35;100.00
50349;BME280;36250;48.740;22.174;2022-09-12T03:57:39;99920.91;;;12.30;100.00
50349;BME280;36250;48.740;22.174;2022-09-12T04:00:05;99922.31;;;12.33;100.00
50349;BME280;36250;48.740;22.174;2022-09-12T04:02:32;99913.97;;;12.29;100.00
50349;BME280;36250;48.740;22.174;2022-09-12T04:04:58;99916.97;;;12.46;99.95
50349;BME280;36250;48.740;22.174;2022-09-12T04:07:23;99916.94;;;12.53;100.00
50349;BME280;36250;48.740;22.174;2022-09-12T04:09:48;99916.53;;;12.50;100.00
50349;BME280;36250;48.740;22.174;2022-09-12T04:12:14;99922.47;;;12.45;100.00
50349;BME280;36250;48.740;22.174;2022-09-12T04:14:39;99914.94;;;12.42;100.00
50349;BME280;36250;48.740;22.174;2022-09-12T04:17:05;99924.13;;;12.39;100.00
50349;BME280;36250;48.740;22.174;2022-09-12T04:19:30;99925.16;;;12.38;100.00
50349;BME280;36250;48.740;22.174;2022-09-12T04:21:56;99930.03;;;12.41;100.00
50349;BME280;36250;48.740;22.174;2022-09-12T04:24:21;99935.75;;;12.45;100.00
50349;BME280;36250;48.740;22.174;2022-09-12T04:26:47;99924.34;;;12.44;100.00
50349;BME280;36250;48.740;22.174;2022-09-12T04:29:12;99930.84;;;12.49;100.00
50349;BME280;36250;48.740;22.174;2022-09-12T04:31:39;99927.16;;;12.50;100.00
50349;BME280;36250;48.740;22.174;2022-09-12T04:34:05;99926.75;;;12.53;99.43
50349;BME280;36250;48.740;22.174;2022-09-12T04:36:30;99924.25;;;12.65;97.68
50349;BME280;36250;48.740;22.174;2022-09-12T04:38:56;99933.63;;;12.74;100.00
50349;BME280;36250;48.740;22.174;2022-09-12T04:41:23;99931.31;;;12.78;100.00
50349;BME280;36250;48.740;22.174;2022-09-12T04:43:54;99946.06;;;12.80;100.00
50349;BME280;36250;48.740;22.174;2022-09-12T04:46:22;99946.25;;;12.79;98.31
50349;BME280;36250;48.740;22.174;2022-09-12T04:48:48;99953.16;;;12.86;98.47
50349;BME280;36250;48.740;22.174;2022-09-12T04:51:16;99941.09;;;12.90;97.25
50349;BME280;36250;48.740;22.174;2022-09-12T04:53:42;99945.94;;;13.00;98.41
50349;BME280;36250;48.740;22.174;2022-09-12T04:56:09;99950.22;;;13.08;98.78
50349;BME280;36250;48.740;22.174;2022-09-12T04:58:36;99945.06;;;13.13;98.45
50349;BME280;36250;48.740;22.174;2022-09-12T05:01:06;99951.41;;;13.12;97.65
50349;BME280;36250;48.740;22.174;2022-09-12T05:03:32;99962.81;;;13.19;98.07
50349;BME280;36250;48.740;22.174;2022-09-12T05:05:58;99968.09;;;13.26;98.09
50349;BME280;36250;48.740;22.174;2022-09-12T05:08:24;99965.81;;;13.30;97.18
50349;BME280;36250;48.740;22.174;2022-09-12T05:10:49;99967.00;;;13.34;97.68
50349;BME280;36250;48.740;22.174;2022-09-12T05:13:15;99960.22;;;13.38;96.94
50349;BME280;36250;48.740;22.174;2022-09-12T05:15:40;99958.59;;;13.37;95.79
50349;BME280;36250;48.740;22.174;2022-09-12T05:18:05;99957.19;;;13.35;94.22
50349;BME280;36250;48.740;22.174;2022-09-12T05:20:32;99972.50;;;13.39;96.47
50349;BME280;36250;48.740;22.174;2022-09-12T05:22:57;99981.94;;;13.35;97.49
50349;BME280;36250;48.740;22.174;2022-09-12T05:25:24;99984.59;;;13.35;98.71
50349;BME280;36250;48.740;22.174;2022-09-12T05:27:51;99988.09;;;13.36;97.47
50349;BME280;36250;48.740;22.174;2022-09-12T05:30:17;99988.91;;;13.36;98.23
50349;BME280;36250;48.740;22.174;2022-09-12T05:32:42;99991.38;;;13.31;95.02
50349;BME280;36250;48.740;22.174;2022-09-12T05:35:07;99991.56;;;13.43;97.54
50349;BME280;36250;48.740;22.174;2022-09-12T05:37:33;99995.81;;;13.51;96.17
50349;BME280;36250;48.740;22.174;2022-09-12T05:39:58;99985.25;;;13.62;93.75
50349;BME280;36250;48.740;22.174;2022-09-12T05:42:24;99985.84;;;13.65;92.77
50349;BME280;36250;48.740;22.174;2022-09-12T05:44:49;99987.09;;;13.69;93.00
50349;BME280;36250;48.740;22.174;2022-09-12T05:47:14;99989.69;;;13.75;92.34
50349;BME280;36250;48.740;22.174;2022-09-12T05:49:41;99991.16;;;13.71;91.58
50349;BME280;36250;48.740;22.174;2022-09-12T05:52:09;99988.97;;;13.61;93.11
50349;BME280;36250;48.740;22.174;2022-09-12T05:54:34;99985.47;;;13.68;92.16
50349;BME280;36250;48.740;22.174;2022-09-12T05:57:00;99991.97;;;13.72;92.38
50349;BME280;36250;48.740;22.174;2022-09-12T05:59:25;99989.50;;;13.70;91.45
50349;BME280;36250;48.740;22.174;2022-09-12T06:01:52;99982.16;;;13.66;91.39
50349;BME280;36250;48.740;22.174;2022-09-12T06:04:18;99983.59;;;13.68;92.22
50349;BME280;36250;48.740;22.174;2022-09-12T06:06:44;99992.63;;;13.67;91.95
50349;BME280;36250;48.740;22.174;2022-09-12T06:09:11;99992.41;;;13.69;92.13
50349;BME280;36250;48.740;22.174;2022-09-12T06:11:39;99992.22;;;13.64;91.88
50349;BME280;36250;48.740;22.174;2022-09-12T06:14:09;99997.13;;;13.67;92.73
50349;BME280;36250;48.740;22.174;2022-09-12T06:16:35;99997.66;;;13.75;90.87
50349;BME280;36250;48.740;22.174;2022-09-12T06:19:07;99989.41;;;13.84;92.17
50349;BME280;36250;48.740;22.174;2022-09-12T06:21:36;99991.59;;;13.94;90.18
50349;BME280;36250;48.740;22.174;2022-09-12T06:24:01;99990.94;;;13.98;89.90
50349;BME280;36250;48.740;22.174;2022-09-12T06:26:28;99986.41;;;13.99;88.40
50349;BME280;36250;48.740;22.174;2022-09-12T06:28:55;99995.13;;;13.87;89.00
50349;BME280;36250;48.740;22.174;2022-09-12T06:31:23;99984.31;;;13.82;87.98
50349;BME280;36250;48.740;22.174;2022-09-12T06:33:50;99994.53;;;13.85;88.95
50349;BME280;36250;48.740;22.174;2022-09-12T06:36:18;99998.38;;;13.89;89.31
50349;BME280;36250;48.740;22.174;2022-09-12T06:38:45;99999.25;;;13.83;87.33
50349;BME280;36250;48.740;22.174;2022-09-12T06:41:11;100000.16;;;13.96;87.87
50349;BME280;36250;48.740;22.174;2022-09-12T06:43:37;99997.06;;;13.99;86.52
50349;BME280;36250;48.740;22.174;2022-09-12T06:46:03;100000.56;;;13.99;87.28
50349;BME280;36250;48.740;22.174;2022-09-12T06:48:28;100001.19;;;13.95;85.07
50349;BME280;36250;48.740;22.174;2022-09-12T06:50:59;100003.81;;;14.01;85.44
50349;BME280;36250;48.740;22.174;2022-09-12T06:53:25;99997.81;;;14.06;84.20
50349;BME280;36250;48.740;22.174;2022-09-12T06:55:56;100002.63;;;13.97;83.10
50349;BME280;36250;48.740;22.174;2022-09-12T06:58:22;99993.66;;;13.91;82.92
50349;BME280;36250;48.740;22.174;2022-09-12T07:00:47;99992.78;;;13.98;81.39
50349;BME280;36250;48.740;22.174;2022-09-12T07:03:12;99998.44;;;14.08;82.13
50349;BME280;36250;48.740;22.174;2022-09-12T07:05:38;100012.50;;;14.15;81.78
50349;BME280;36250;48.740;22.174;2022-09-12T07:08:04;100008.22;;;14.14;80.54
50349;BME280;36250;48.740;22.174;2022-09-12T07:10:29;100010.72;;;14.09;79.21
50349;BME280;36250;48.740;22.174;2022-09-12T07:12:55;100014.22;;;14.03;78.73
50349;BME280;36250;48.740;22.174;2022-09-12T07:15:20;100015.22;;;14.09;79.95
50349;BME280;36250;48.740;22.174;2022-09-12T07:17:45;100014.94;;;14.17;79.46
50349;BME280;36250;48.740;22.174;2022-09-12T07:20:11;100013.31;;;14.16;77.13
50349;BME280;36250;48.740;22.174;2022-09-12T07:22:36;100021.69;;;14.19;77.92
50349;BME280;36250;48.740;22.174;2022-09-12T07:25:03;100014.88;;;14.24;76.90
50349;BME280;36250;48.740;22.174;2022-09-12T07:27:29;100017.69;;;14.29;77.00
50349;BME280;36250;48.740;22.174;2022-09-12T07:29:54;100016.66;;;14.30;76.92
50349;BME280;36250;48.740;22.174;2022-09-12T07:32:20;100011.56;;;14.28;76.84
50349;BME280;36250;48.740;22.174;2022-09-12T07:34:45;100016.75;;;14.42;75.60
50349;BME280;36250;48.740;22.174;2022-09-12T07:37:10;100020.81;;;14.44;74.50
50349;BME280;36250;48.740;22.174;2022-09-12T07:39:36;100027.78;;;14.45;76.02
50349;BME280;36250;48.740;22.174;2022-09-12T07:42:01;100020.81;;;14.44;74.58
50349;BME280;36250;48.740;22.174;2022-09-12T07:44:27;100034.38;;;14.43;75.14
50349;BME280;36250;48.740;22.174;2022-09-12T07:46:53;100016.97;;;14.40;72.15
50349;BME280;36250;48.740;22.174;2022-09-12T07:49:18;100032.16;;;14.40;73.03
50349;BME280;36250;48.740;22.174;2022-09-12T07:51:44;100033.97;;;14.39;72.56
50349;BME280;36250;48.740;22.174;2022-09-12T07:54:09;100024.91;;;14.66;73.27
50349;BME280;36250;48.740;22.174;2022-09-12T07:56:35;100023.00;;;14.91;71.95
50349;BME280;36250;48.740;22.174;2022-09-12T07:59:00;100025.88;;;15.09;72.47
50349;BME280;36250;48.740;22.174;2022-09-12T08:01:26;100029.56;;;15.38;72.37
50349;BME280;36250;48.740;22.174;2022-09-12T08:03:56;100026.88;;;15.57;72.00
50349;BME280;36250;48.740;22.174;2022-09-12T08:06:22;100016.16;;;15.45;69.20
50349;BME280;36250;48.740;22.174;2022-09-12T08:08:49;100015.44;;;15.49;69.77
50349;BME280;36250;48.740;22.174;2022-09-12T08:11:17;100018.81;;;15.45;71.09
50349;BME280;36250;48.740;22.174;2022-09-12T08:13:43;100025.91;;;15.51;72.53
50349;BME280;36250;48.740;22.174;2022-09-12T08:16:20;100019.47;;;15.71;69.39
50349;BME280;36250;48.740;22.174;2022-09-12T08:18:46;100027.03;;;15.74;69.65
50349;BME280;36250;48.740;22.174;2022-09-12T08:21:15;100010.47;;;15.96;66.64
50349;BME280;36250;48.740;22.174;2022-09-12T08:23:41;100014.53;;;16.10;66.44
50349;BME280;36250;48.740;22.174;2022-09-12T08:26:06;100009.78;;;16.00;66.34
50349;BME280;36250;48.740;22.174;2022-09-12T08:28:34;100007.56;;;15.97;66.71
50349;BME280;36250;48.740;22.174;2022-09-12T08:31:00;100005.63;;;16.16;65.92
50349;BME280;36250;48.740;22.174;2022-09-12T08:33:27;99996.06;;;16.08;64.23
50349;BME280;36250;48.740;22.174;2022-09-12T08:36:18;99997.34;;;16.06;65.40
50349;BME280;36250;48.740;22.174;2022-09-12T08:38:47;99990.94;;;16.07;64.15
50349;BME280;36250;48.740;22.174;2022-09-12T08:43:55;100001.06;;;16.29;66.33
50349;BME280;36250;48.740;22.174;2022-09-12T08:46:27;99996.38;;;16.60;64.29
50349;BME280;36250;48.740;22.174;2022-09-12T08:48:57;99991.75;;;16.43;63.13
50349;BME280;36250;48.740;22.174;2022-09-12T08:51:24;99992.78;;;16.54;62.22
50349;BME280;36250;48.740;22.174;2022-09-12T08:53:51;99992.88;;;16.71;59.95
50349;BME280;36250;48.740;22.174;2022-09-12T08:56:18;99990.09;;;16.66;59.41
50349;BME280;36250;48.740;22.174;2022-09-12T08:58:44;99979.97;;;16.68;59.93
50349;BME280;36250;48.740;22.174;2022-09-12T09:01:29;99984.78;;;16.42;59.99
50349;BME280;36250;48.740;22.174;2022-09-12T09:07:06;100000.22;;;16.52;59.21
50349;BME280;36250;48.740;22.174;2022-09-12T09:17:41;99979.13;;;16.79;55.79
50349;BME280;36250;48.740;22.174;2022-09-12T09:23:00;99979.56;;;17.00;58.07
50349;BME280;36250;48.740;22.174;2022-09-12T09:25:37;99987.84;;;17.16;57.59
50349;BME280;36250;48.740;22.174;2022-09-12T09:28:10;99981.25;;;17.35;58.33
50349;BME280;36250;48.740;22.174;2022-09-12T09:30:40;99989.84;;;17.37;54.88
50349;BME280;36250;48.740;22.174;2022-09-12T09:33:13;99985.56;;;17.36;55.66
50349;BME280;36250;48.740;22.174;2022-09-12T09:35:44;99983.03;;;17.47;55.17
50349;BME280;36250;48.740;22.174;2022-09-12T09:43:40;99988.41;;;17.47;56.15
50349;BME280;36250;48.740;22.174;2022-09-12T09:46:06;99977.19;;;17.50;53.71
50349;BME280;36250;48.740;22.174;2022-09-12T09:48:34;99979.84;;;17.33;53.79
50349;BME280;36250;48.740;22.174;2022-09-12T09:51:02;99978.47;;;17.30;55.46
50349;BME280;36250;48.740;22.174;2022-09-12T09:53:46;99974.03;;;17.36;53.76
50349;BME280;36250;48.740;22.174;2022-09-12T09:56:34;99981.34;;;17.41;52.43
50349;BME280;36250;48.740;22.174;2022-09-12T09:59:26;99967.94;;;17.41;50.39
50349;BME280;36250;48.740;22.174;2022-09-12T10:02:07;99984.81;;;17.58;51.93
50349;BME280;36250;48.740;22.174;2022-09-12T10:04:55;100003.75;;;17.69;51.97
50349;BME280;36250;48.740;22.174;2022-09-12T10:07:21;99979.00;;;17.78;50.99
50349;BME280;36250;48.740;22.174;2022-09-12T10:10:12;99979.47;;;18.09;51.68
50349;BME280;36250;48.740;22.174;2022-09-12T10:12:38;99978.56;;;18.21;52.29
50349;BME280;36250;48.740;22.174;2022-09-12T10:17:43;99966.78;;;18.22;47.49
50349;BME280;36250;48.740;22.174;2022-09-12T10:23:01;99957.63;;;18.40;49.87
50349;BME280;36250;48.740;22.174;2022-09-12T10:25:27;99965.94;;;18.61;49.20
50349;BME280;36250;48.740;22.174;2022-09-12T10:27:58;99967.81;;;18.60;49.27
50349;BME280;36250;48.740;22.174;2022-09-12T10:30:26;99964.50;;;18.53;50.50
50349;BME280;36250;48.740;22.174;2022-09-12T10:32:56;99957.75;;;18.50;49.58
50349;BME280;36250;48.740;22.174;2022-09-12T10:35:28;99972.44;;;18.65;49.48
50349;BME280;36250;48.740;22.174;2022-09-12T10:38:05;99969.81;;;18.48;46.75
50349;BME280;36250;48.740;22.174;2022-09-12T10:40:38;99970.09;;;18.29;46.39
50349;BME280;36250;48.740;22.174;2022-09-12T10:43:40;99972.47;;;18.26;47.32
50349;BME280;36250;48.740;22.174;2022-09-12T10:48:48;99963.72;;;18.35;46.95
50349;BME280;36250;48.740;22.174;2022-09-12T10:53:52;99963.88;;;18.46;46.59
50349;BME280;36250;48.740;22.174;2022-09-12T10:56:28;99959.53;;;18.62;47.42
50349;BME280;36250;48.740;22.174;2022-09-12T10:59:16;99972.03;;;18.56;47.38
50349;BME280;36250;48.740;22.174;2022-09-12T11:01:58;99961.38;;;18.39;46.59
50349;BME280;36250;48.740;22.174;2022-09-12T11:04:52;99972.53;;;18.31;47.96
50349;BME280;36250;48.740;22.174;2022-09-12T11:07:38;99969.06;;;18.13;48.90
50349;BME280;36250;48.740;22.174;2022-09-12T11:10:29;99972.72;;;18.24;49.20
50349;BME280;36250;48.740;22.174;2022-09-12T11:18:58;99966.84;;;18.72;47.01
50349;BME280;36250;48.740;22.174;2022-09-12T11:21:46;99958.81;;;18.49;46.22
50349;BME280;36250;48.740;22.174;2022-09-12T11:24:56;99967.75;;;18.55;47.03
50349;BME280;36250;48.740;22.174;2022-09-12T11:30:11;99967.28;;;18.86;46.00
50349;BME280;36250;48.740;22.174;2022-09-12T11:35:24;99962.28;;;18.94;47.54
50349;BME280;36250;48.740;22.174;2022-09-12T11:40:55;99959.16;;;19.30;45.85
50349;BME280;36250;48.740;22.174;2022-09-12T11:45:59;99950.34;;;19.35;45.31
50349;BME280;36250;48.740;22.174;2022-09-12T11:48:39;99957.38;;;19.08;45.32
50349;BME280;36250;48.740;22.174;2022-09-12T11:51:16;99957.00;;;19.00;44.41
50349;BME280;36250;48.740;22.174;2022-09-12T11:53:42;99962.97;;;18.85;44.49
50349;BME280;36250;48.740;22.174;2022-09-12T11:56:18;99960.75;;;18.76;45.48
50349;BME280;36250;48.740;22.174;2022-09-12T11:58:50;99956.50;;;19.03;45.87
50349;BME280;36250;48.740;22.174;2022-09-12T12:01:25;99956.28;;;19.09;46.52
50349;BME280;36250;48.740;22.174;2022-09-12T12:03:51;99974.63;;;19.18;47.60
50349;BME280;36250;48.740;22.174;2022-09-12T12:06:38;99975.38;;;19.13;48.27
50349;BME280;36250;48.740;22.174;2022-09-12T12:09:10;99962.22;;;19.11;47.24
50349;BME280;36250;48.740;22.174;2022-09-12T12:11:40;99971.56;;;19.09;47.89
50349;BME280;36250;48.740;22.174;2022-09-12T12:14:17;99962.75;;;18.86;48.00
50349;BME280;36250;48.740;22.174;2022-09-12T12:16:44;99972.91;;;18.84;46.75
50349;BME280;36250;48.740;22.174;2022-09-12T12:21:42;99977.09;;;18.75;49.28
50349;BME280;36250;48.740;22.174;2022-09-12T12:34:35;99980.69;;;18.02;48.69
50349;BME280;36250;48.740;22.174;2022-09-12T12:44:53;100003.66;;;17.63;49.18
50349;BME280;36250;48.740;22.174;2022-09-12T12:47:21;100000.81;;;17.53;50.00
50349;BME280;36250;48.740;22.174;2022-09-12T12:49:50;99998.38;;;17.51;50.11
50349;BME280;36250;48.740;22.174;2022-09-12T12:52:17;100005.44;;;17.41;49.09
50349;BME280;36250;48.740;22.174;2022-09-12T12:57:18;99993.91;;;17.40;49.50
50349;BME280;36250;48.740;22.174;2022-09-12T13:02:20;100006.72;;;17.38;50.34
50349;BME280;36250;48.740;22.174;2022-09-12T13:04:47;99996.97;;;17.32;50.28
50349;BME280;36250;48.740;22.174;2022-09-12T13:07:22;100000.00;;;17.35;51.90
50349;BME280;36250;48.740;22.174;2022-09-12T13:09:50;99994.03;;;17.33;50.20
50349;BME280;36250;48.740;22.174;2022-09-12T13:14:50;100008.16;;;17.29;51.74
50349;BME280;36250;48.740;22.174;2022-09-12T13:19:49;100000.63;;;17.26;50.51
50349;BME280;36250;48.740;22.174;2022-09-12T13:22:16;100003.03;;;17.27;51.00
50349;BME280;36250;48.740;22.174;2022-09-12T13:24:47;99998.03;;;17.31;51.25
50349;BME280;36250;48.740;22.174;2022-09-12T13:27:23;99989.75;;;17.32;51.78
50349;BME280;36250;48.740;22.174;2022-09-12T13:30:12;100001.63;;;17.36;51.56
50349;BME280;36250;48.740;22.174;2022-09-12T13:32:38;100010.59;;;17.30;52.05
50349;BME280;36250;48.740;22.174;2022-09-12T13:35:12;100013.16;;;17.25;52.66
50349;BME280;36250;48.740;22.174;2022-09-12T13:38:05;100008.66;;;17.26;52.65
50349;BME280;36250;48.740;22.174;2022-09-12T13:43:14;100016.72;;;17.14;53.41
50349;BME280;36250;48.740;22.174;2022-09-12T13:45:41;100017.19;;;17.11;53.67
50349;BME280;36250;48.740;22.174;2022-09-12T13:48:19;100014.44;;;17.05;53.68
50349;BME280;36250;48.740;22.174;2022-09-12T13:50:57;100010.81;;;17.00;52.49
50349;BME280;36250;48.740;22.174;2022-09-12T13:53:27;100016.88;;;16.95;53.01
50349;BME280;36250;48.740;22.174;2022-09-12T13:55:58;100010.59;;;16.89;51.80
50349;BME280;36250;48.740;22.174;2022-09-12T13:58:30;100019.44;;;16.90;53.67
50349;BME280;36250;48.740;22.174;2022-09-12T14:03:32;100024.69;;;16.85;53.33
50349;BME280;36250;48.740;22.174;2022-09-12T14:06:17;100026.19;;;16.80;54.00
50349;BME280;36250;48.740;22.174;2022-09-12T14:08:44;100019.47;;;16.78;52.69
50349;BME280;36250;48.740;22.174;2022-09-12T14:11:17;100022.84;;;16.73;53.57
50349;BME280;36250;48.740;22.174;2022-09-12T14:13:45;100022.50;;;16.70;54.11
50349;BME280;36250;48.740;22.174;2022-09-12T14:16:10;100029.72;;;16.69;55.31
50349;BME280;36250;48.740;22.174;2022-09-12T14:18:37;100032.63;;;16.68;55.70
50349;BME280;36250;48.740;22.174;2022-09-12T14:21:11;100029.63;;;16.64;53.63
50349;BME280;36250;48.740;22.174;2022-09-12T14:23:44;100029.63;;;16.64;53.89
50349;BME280;36250;48.740;22.174;2022-09-12T14:26:13;100031.81;;;16.67;54.39
50349;BME280;36250;48.740;22.174;2022-09-12T14:28:43;100036.91;;;16.69;55.98
50349;BME280;36250;48.740;22.174;2022-09-12T14:33:49;100026.94;;;16.64;55.42
50349;BME280;36250;48.740;22.174;2022-09-12T14:36:42;100036.00;;;16.63;54.43
50349;BME280;36250;48.740;22.174;2022-09-12T14:39:31;100042.75;;;16.65;57.13
50349;BME280;36250;48.740;22.174;2022-09-12T14:42:15;100040.22;;;16.59;57.34
50349;BME280;36250;48.740;22.174;2022-09-12T14:44:53;100041.16;;;16.53;56.19
50349;BME280;36250;48.740;22.174;2022-09-12T14:47:22;100044.16;;;16.44;54.85
50349;BME280;36250;48.740;22.174;2022-09-12T14:49:49;100038.69;;;16.39;56.48
50349;BME280;36250;48.740;22.174;2022-09-12T14:55:22;100055.56;;;16.28;58.92
50349;BME280;36250;48.740;22.174;2022-09-12T14:57:45;100053.81;;;16.21;59.94
50349;BME280;36250;48.740;22.174;2022-09-12T15:02:41;100048.22;;;16.11;60.07